sensor_id;sensor_type;location;lat;lon;timestamp;temperature;humidity
35680;DHT22;21803;53.586;10.040;2023-05-01T04:01:40;20.50;38.20
35680;DHT22;21803;53.586;10.040;2023-05-01T04:04:06;22.30;39.00
35680;DHT22;21803;53.586;10.040;2023-05-01T04:06:32;20.50;38.20
35680;DHT22;21803;53.586;10.040;2023-05-01T04:08:57;20.50;38.10
35680;DHT22;21803;53.586;10.040;2023-05-01T04:11:23;20.50;38.10
35680;DHT22;21803;53.586;10.040;2023-05-01T04:13:48;20.50;38.10
35680;DHT22;21803;53.586;10.040;2023-05-01T04:16:14;20.50;38.10
35680;DHT22;21803;53.586;10.040;2023-05-01T04:18:39;20.50;38.10
35680;DHT22;21803;53.586;10.040;2023-05-01T04:21:05;20.50;38.10
35680;DHT22;21803;53.586;10.040;2023-05-01T04:23:30;20.60;38.00
35680;DHT22;21803;53.586;10.040;2023-05-01T04:25:56;20.60;38.00
35680;DHT22;21803;53.586;10.040;2023-05-01T04:28:21;20.60;38.00
35680;DHT22;21803;53.586;10.040;2023-05-01T04:30:47;20.60;38.00
35680;DHT22;21803;53.586;10.040;2023-05-01T04:33:12;20.60;38.00
35680;DHT22;21803;53.586;10.040;2023-05-01T04:35:39;20.60;38.00
35680;DHT22;21803;53.586;10.040;2023-05-01T04:38:05;20.60;38.00
35680;DHT22;21803;53.586;10.040;2023-05-01T04:40:30;20.60;37.90
35680;DHT22;21803;53.586;10.040;2023-05-01T04:42:56;20.60;37.90
35680;DHT22;21803;53.586;10.040;2023-05-01T04:45:21;20.60;38.00
35680;DHT22;21803;53.586;10.040;2023-05-01T04:47:47;19.70;37.50
35680;DHT22;21803;53.586;10.040;2023-05-01T04:50:13;20.60;37.90
35680;DHT22;21803;53.586;10.040;2023-05-01T04:52:38;20.70;38.00
35680;DHT22;21803;53.586;10.040;2023-05-01T04:55:04;20.60;37.90
35680;DHT22;21803;53.586;10.040;2023-05-01T04:57:30;20.60;37.90
35680;DHT22;21803;53.586;10.040;2023-05-01T04:59:56;20.70;38.00
35680;DHT22;21803;53.586;10.040;2023-05-01T05:02:22;20.70;38.00
35680;DHT22;21803;53.586;10.040;2023-05-01T05:04:47;20.70;38.00
35680;DHT22;21803;53.586;10.040;2023-05-01T05:07:13;20.70;38.00
35680;DHT22;21803;53.586;10.040;2023-05-01T05:09:38;20.70;38.00
35680;DHT22;21803;53.586;10.040;2023-05-01T05:12:04;20.70;38.00
35680;DHT22;21803;53.586;10.040;2023-05-01T05:14:30;20.70;38.00
35680;DHT22;21803;53.586;10.040;2023-05-01T05:16:55;20.70;38.10
35680;DHT22;21803;53.586;10.040;2023-05-01T05:19:21;20.70;38.10
35680;DHT22;21803;53.586;10.040;2023-05-01T05:21:47;20.80;38.30
35680;DHT22;21803;53.586;10.040;2023-05-01T05:24:12;20.80;38.30
35680;DHT22;21803;53.586;10.040;2023-05-01T05:26:38;20.80;38.30
35680;DHT22;21803;53.586;10.040;2023-05-01T05:29:04;20.80;38.30
35680;DHT22;21803;53.586;10.040;2023-05-01T05:31:29;20.80;38.20
35680;DHT22;21803;53.586;10.040;2023-05-01T05:33:55;20.80;38.20
35680;DHT22;21803;53.586;10.040;2023-05-01T05:36:20;20.80;38.20
35680;DHT22;21803;53.586;10.040;2023-05-01T05:38:46;20.80;38.30
35680;DHT22;21803;53.586;10.040;2023-05-01T05:41:12;20.80;38.30
35680;DHT22;21803;53.586;10.040;2023-05-01T05:43:37;20.80;38.30
35680;DHT22;21803;53.586;10.040;2023-05-01T05:46:03;20.80;38.30
35680;DHT22;21803;53.586;10.040;2023-05-01T05:48:28;20.80;38.30
35680;DHT22;21803;53.586;10.040;2023-05-01T05:50:54;20.90;38.40
35680;DHT22;21803;53.586;10.040;2023-05-01T05:53:20;20.80;38.40
35680;DHT22;21803;53.586;10.040;2023-05-01T05:55:46;20.90;38.40
35680;DHT22;21803;53.586;10.040;2023-05-01T05:58:12;20.90;38.40
35680;DHT22;21803;53.586;10.040;2023-05-01T06:00:39;20.90;38.40
35680;DHT22;21803;53.586;10.040;2023-05-01T06:03:05;20.90;38.40
35680;DHT22;21803;53.586;10.040;2023-05-01T06:05:31;20.90;38.40
35680;DHT22;21803;53.586;10.040;2023-05-01T06:07:58;20.90;38.50
35680;DHT22;21803;53.586;10.040;2023-05-01T06:10:24;20.90;38.40
35680;DHT22;21803;53.586;10.040;2023-05-01T06:12:49;20.90;38.40
35680;DHT22;21803;53.586;10.040;2023-05-01T06:15:15;21.00;38.50
35680;DHT22;21803;53.586;10.040;2023-05-01T06:17:41;21.10;38.50
35680;DHT22;21803;53.586;10.040;2023-05-01T06:20:08;21.00;38.40
35680;DHT22;21803;53.586;10.040;2023-05-01T06:22:33;21.00;38.40
35680;DHT22;21803;53.586;10.040;2023-05-01T06:24:59;21.00;38.40
35680;DHT22;21803;53.586;10.040;2023-05-01T06:27:25;21.10;38.50
35680;DHT22;21803;53.586;10.040;2023-05-01T06:29:50;21.00;38.40
35680;DHT22;21803;53.586;10.040;2023-05-01T06:32:16;21.00;38.40
35680;DHT22;21803;53.586;10.040;2023-05-01T06:34:41;21.10;38.50
35680;DHT22;21803;53.586;10.040;2023-05-01T06:37:07;21.10;38.40
35680;DHT22;21803;53.586;10.040;2023-05-01T06:39:32;21.10;38.40
35680;DHT22;21803;53.586;10.040;2023-05-01T06:41:58;21.00;38.40
35680;DHT22;21803;53.586;10.040;2023-05-01T06:44:24;21.10;38.50
35680;DHT22;21803;53.586;10.040;2023-05-01T06:46:49;21.10;38.50
35680;DHT22;21803;53.586;10.040;2023-05-01T06:49:15;21.10;38.50
35680;DHT22;21803;53.586;10.040;2023-05-01T06:51:40;21.10;38.50
35680;DHT22;21803;53.586;10.040;2023-05-01T06:54:06;21.10;38.60
35680;DHT22;21803;53.586;10.040;2023-05-01T06:56:31;21.10;38.60
35680;DHT22;21803;53.586;10.040;2023-05-01T06:58:57;21.10;38.60
35680;DHT22;21803;53.586;10.040;2023-05-01T07:01:23;21.00;38.60
35680;DHT22;21803;53.586;10.040;2023-05-01T07:03:48;21.10;38.60
35680;DHT22;21803;53.586;10.040;2023-05-01T07:06:14;21.00;38.60
35680;DHT22;21803;53.586;10.040;2023-05-01T07:08:39;21.00;38.70
35680;DHT22;21803;53.586;10.040;2023-05-01T07:11:05;21.10;38.70
35680;DHT22;21803;53.586;10.040;2023-05-01T07:13:31;21.00;38.70
35680;DHT22;21803;53.586;10.040;2023-05-01T07:15:57;21.00;38.70
35680;DHT22;21803;53.586;10.040;2023-05-01T07:18:22;21.00;38.70
35680;DHT22;21803;53.586;10.040;2023-05-01T07:20:48;21.00;38.70
35680;DHT22;21803;53.586;10.040;2023-05-01T07:23:14;21.00;38.70
35680;DHT22;21803;53.586;10.040;2023-05-01T07:25:40;21.00;38.80
35680;DHT22;21803;53.586;10.040;2023-05-01T07:28:06;20.90;38.70
35680;DHT22;21803;53.586;10.040;2023-05-01T07:30:33;21.00;38.80
35680;DHT22;21803;53.586;10.040;2023-05-01T07:32:58;21.00;38.80
35680;DHT22;21803;53.586;10.040;2023-05-01T07:35:24;20.90;38.70
35680;DHT22;21803;53.586;10.040;2023-05-01T07:37:50;20.90;38.70
35680;DHT22;21803;53.586;10.040;2023-05-01T07:40:16;20.90;38.70
35680;DHT22;21803;53.586;10.040;2023-05-01T07:42:42;21.00;38.80
35680;DHT22;21803;53.586;10.040;2023-05-01T07:45:07;20.90;38.70
35680;DHT22;21803;53.586;10.040;2023-05-01T07:47:33;20.90;38.70
35680;DHT22;21803;53.586;10.040;2023-05-01T07:49:59;21.00;38.80
35680;DHT22;21803;53.586;10.040;2023-05-01T07:52:25;20.90;38.80
35680;DHT22;21803;53.586;10.040;2023-05-01T07:54:51;20.90;38.80
35680;DHT22;21803;53.586;10.040;2023-05-01T07:57:17;20.90;38.80
35680;DHT22;21803;53.586;10.040;2023-05-01T07:59:42;20.90;38.80
35680;DHT22;21803;53.586;10.040;2023-05-01T08:02:08;20.90;38.80
35680;DHT22;21803;53.586;10.040;2023-05-01T08:04:33;20.90;38.80
35680;DHT22;21803;53.586;10.040;2023-05-01T08:06:59;20.90;38.80
35680;DHT22;21803;53.586;10.040;2023-05-01T08:09:24;20.90;38.80
35680;DHT22;21803;53.586;10.040;2023-05-01T08:11:50;20.90;38.80
35680;DHT22;21803;53.586;10.040;2023-05-01T08:14:15;20.90;39.50
35680;DHT22;21803;53.586;10.040;2023-05-01T08:16:42;21.00;38.90
35680;DHT22;21803;53.586;10.040;2023-05-01T08:19:08;20.90;38.90
35680;DHT22;21803;53.586;10.040;2023-05-01T08:21:33;20.90;38.90
35680;DHT22;21803;53.586;10.040;2023-05-01T08:23:59;20.90;38.90
35680;DHT22;21803;53.586;10.040;2023-05-01T08:26:25;20.90;39.00
35680;DHT22;21803;53.586;10.040;2023-05-01T08:28:51;20.90;38.90
35680;DHT22;21803;53.586;10.040;2023-05-01T08:31:16;20.90;38.90
35680;DHT22;21803;53.586;10.040;2023-05-01T08:33:43;20.90;38.90
35680;DHT22;21803;53.586;10.040;2023-05-01T08:36:09;20.90;38.90
35680;DHT22;21803;53.586;10.040;2023-05-01T08:38:36;20.90;39.00
35680;DHT22;21803;53.586;10.040;2023-05-01T08:41:02;20.90;39.00
35680;DHT22;21803;53.586;10.040;2023-05-01T08:43:30;20.90;38.90
35680;DHT22;21803;53.586;10.040;2023-05-01T08:45:58;20.90;38.90
35680;DHT22;21803;53.586;10.040;2023-05-01T08:48:24;20.90;39.00
35680;DHT22;21803;53.586;10.040;2023-05-01T08:50:54;20.90;39.00
35680;DHT22;21803;53.586;10.040;2023-05-01T08:53:21;20.90;39.00
35680;DHT22;21803;53.586;10.040;2023-05-01T08:55:48;20.90;39.00
35680;DHT22;21803;53.586;10.040;2023-05-01T08:58:16;20.90;39.00
35680;DHT22;21803;53.586;10.040;2023-05-01T09:00:43;20.90;39.10
35680;DHT22;21803;53.586;10.040;2023-05-01T09:03:11;20.90;39.10
35680;DHT22;21803;53.586;10.040;2023-05-01T09:05:37;20.90;39.10
35680;DHT22;21803;53.586;10.040;2023-05-01T09:08:03;20.90;39.10
35680;DHT22;21803;53.586;10.040;2023-05-01T09:10:29;20.80;39.00
35680;DHT22;21803;53.586;10.040;2023-05-01T09:13:00;20.90;39.10
35680;DHT22;21803;53.586;10.040;2023-05-01T09:15:26;20.90;39.20
35680;DHT22;21803;53.586;10.040;2023-05-01T09:17:53;20.80;39.20
35680;DHT22;21803;53.586;10.040;2023-05-01T09:20:19;20.90;39.20
35680;DHT22;21803;53.586;10.040;2023-05-01T09:22:44;20.80;39.20
35680;DHT22;21803;53.586;10.040;2023-05-01T09:25:10;20.90;39.20
35680;DHT22;21803;53.586;10.040;2023-05-01T09:27:39;20.80;39.20
35680;DHT22;21803;53.586;10.040;2023-05-01T09:30:05;20.90;39.20
35680;DHT22;21803;53.586;10.040;2023-05-01T09:32:31;20.90;39.20
35680;DHT22;21803;53.586;10.040;2023-05-01T09:35:13;20.90;39.20
35680;DHT22;21803;53.586;10.040;2023-05-01T09:37:40;20.80;39.20
35680;DHT22;21803;53.586;10.040;2023-05-01T09:40:07;20.80;39.20
35680;DHT22;21803;53.586;10.040;2023-05-01T09:42:38;20.90;39.20
35680;DHT22;21803;53.586;10.040;2023-05-01T09:45:11;20.90;39.20
35680;DHT22;21803;53.586;10.040;2023-05-01T09:47:38;20.90;39.20
35680;DHT22;21803;53.586;10.040;2023-05-01T09:50:04;20.90;39.20
35680;DHT22;21803;53.586;10.040;2023-05-01T09:52:30;20.90;39.20
35680;DHT22;21803;53.586;10.040;2023-05-01T09:55:17;20.90;39.20
35680;DHT22;21803;53.586;10.040;2023-05-01T09:57:44;20.90;39.30
35680;DHT22;21803;53.586;10.040;2023-05-01T10:00:11;20.90;39.20
35680;DHT22;21803;53.586;10.040;2023-05-01T10:02:39;20.90;39.30
35680;DHT22;21803;53.586;10.040;2023-05-01T10:05:05;20.90;39.20
35680;DHT22;21803;53.586;10.040;2023-05-01T10:07:32;20.90;39.20
35680;DHT22;21803;53.586;10.040;2023-05-01T10:09:57;20.90;39.30
35680;DHT22;21803;53.586;10.040;2023-05-01T10:12:27;20.90;39.30
35680;DHT22;21803;53.586;10.040;2023-05-01T10:14:55;20.90;39.30
35680;DHT22;21803;53.586;10.040;2023-05-01T10:17:21;22.40;40.10
35680;DHT22;21803;53.586;10.040;2023-05-01T10:19:47;20.90;39.40
35680;DHT22;21803;53.586;10.040;2023-05-01T10:22:13;20.90;39.40
35680;DHT22;21803;53.586;10.040;2023-05-01T10:24:40;20.90;39.50
35680;DHT22;21803;53.586;10.040;2023-05-01T10:27:06;20.90;39.50
35680;DHT22;21803;53.586;10.040;2023-05-01T10:29:33;20.90;39.50
35680;DHT22;21803;53.586;10.040;2023-05-01T10:32:02;20.90;39.50
35680;DHT22;21803;53.586;10.040;2023-05-01T10:34:29;20.90;39.50
35680;DHT22;21803;53.586;10.040;2023-05-01T10:36:59;20.90;39.50
35680;DHT22;21803;53.586;10.040;2023-05-01T10:39:35;20.90;39.50
35680;DHT22;21803;53.586;10.040;2023-05-01T10:42:10;20.90;39.50
35680;DHT22;21803;53.586;10.040;2023-05-01T10:44:39;20.90;39.50
35680;DHT22;21803;53.586;10.040;2023-05-01T10:50:13;21.00;39.50
35680;DHT22;21803;53.586;10.040;2023-05-01T10:55:38;20.90;39.40
35680;DHT22;21803;53.586;10.040;2023-05-01T10:58:04;20.90;39.40
35680;DHT22;21803;53.586;10.040;2023-05-01T11:00:30;20.90;39.40
35680;DHT22;21803;53.586;10.040;2023-05-01T11:08:32;20.90;39.40
35680;DHT22;21803;53.586;10.040;2023-05-01T11:14:05;20.90;39.40
35680;DHT22;21803;53.586;10.040;2023-05-01T11:19:04;20.90;39.50
35680;DHT22;21803;53.586;10.040;2023-05-01T11:21:31;20.90;39.50
35680;DHT22;21803;53.586;10.040;2023-05-01T11:24:00;20.90;39.50
35680;DHT22;21803;53.586;10.040;2023-05-01T11:26:27;20.90;39.50
35680;DHT22;21803;53.586;10.040;2023-05-01T11:28:54;20.90;39.50
35680;DHT22;21803;53.586;10.040;2023-05-01T11:31:20;20.90;39.50
35680;DHT22;21803;53.586;10.040;2023-05-01T11:33:46;20.90;39.50
35680;DHT22;21803;53.586;10.040;2023-05-01T11:36:12;20.90;39.40
35680;DHT22;21803;53.586;10.040;2023-05-01T11:38:59;20.90;39.50
35680;DHT22;21803;53.586;10.040;2023-05-01T11:41:27;20.90;39.50
35680;DHT22;21803;53.586;10.040;2023-05-01T11:43:57;20.90;39.50
35680;DHT22;21803;53.586;10.040;2023-05-01T11:48:50;20.90;39.40
35680;DHT22;21803;53.586;10.040;2023-05-01T11:51:15;20.90;39.50
35680;DHT22;21803;53.586;10.040;2023-05-01T11:53:41;20.90;39.50
35680;DHT22;21803;53.586;10.040;2023-05-01T11:56:21;20.90;39.50
35680;DHT22;21803;53.586;10.040;2023-05-01T11:58:48;20.90;39.50
35680;DHT22;21803;53.586;10.040;2023-05-01T12:01:14;20.90;39.50
35680;DHT22;21803;53.586;10.040;2023-05-01T12:03:43;20.90;39.60
35680;DHT22;21803;53.586;10.040;2023-05-01T12:06:09;20.90;39.50
35680;DHT22;21803;53.586;10.040;2023-05-01T12:08:44;20.90;39.50
35680;DHT22;21803;53.586;10.040;2023-05-01T12:11:11;20.90;39.50
35680;DHT22;21803;53.586;10.040;2023-05-01T12:13:38;20.90;39.40
35680;DHT22;21803;53.586;10.040;2023-05-01T12:16:05;20.90;39.50
35680;DHT22;21803;53.586;10.040;2023-05-01T12:18:31;20.90;39.40
35680;DHT22;21803;53.586;10.040;2023-05-01T12:20:56;20.90;39.30
35680;DHT22;21803;53.586;10.040;2023-05-01T12:23:35;20.90;39.30
35680;DHT22;21803;53.586;10.040;2023-05-01T12:26:19;20.90;39.40
35680;DHT22;21803;53.586;10.040;2023-05-01T12:29:02;20.90;39.30
35680;DHT22;21803;53.586;10.040;2023-05-01T12:31:28;20.90;39.20
35680;DHT22;21803;53.586;10.040;2023-05-01T12:34:05;20.90;39.20
35680;DHT22;21803;53.586;10.040;2023-05-01T12:36:32;20.90;39.20
35680;DHT22;21803;53.586;10.040;2023-05-01T12:39:03;20.90;39.30
35680;DHT22;21803;53.586;10.040;2023-05-01T12:43:58;20.90;39.00
35680;DHT22;21803;53.586;10.040;2023-05-01T12:46:24;20.90;39.00
35680;DHT22;21803;53.586;10.040;2023-05-01T12:48:50;20.90;39.00
35680;DHT22;21803;53.586;10.040;2023-05-01T12:51:19;20.90;39.00
35680;DHT22;21803;53.586;10.040;2023-05-01T12:53:45;20.90;39.00
35680;DHT22;21803;53.586;10.040;2023-05-01T12:56:20;20.90;39.00
35680;DHT22;21803;53.586;10.040;2023-05-01T12:58:50;20.90;38.90
35680;DHT22;21803;53.586;10.040;2023-05-01T13:01:25;20.90;38.90
35680;DHT22;21803;53.586;10.040;2023-05-01T13:03:51;20.90;38.90
35680;DHT22;21803;53.586;10.040;2023-05-01T13:06:17;20.90;38.90
35680;DHT22;21803;53.586;10.040;2023-05-01T13:08:43;20.90;38.90
35680;DHT22;21803;53.586;10.040;2023-05-01T13:11:16;20.90;38.90
35680;DHT22;21803;53.586;10.040;2023-05-01T13:13:43;20.90;38.90
35680;DHT22;21803;53.586;10.040;2023-05-01T13:16:11;20.90;38.90
35680;DHT22;21803;53.586;10.040;2023-05-01T13:18:46;20.90;38.90
35680;DHT22;21803;53.586;10.040;2023-05-01T13:21:14;20.90;38.90
35680;DHT22;21803;53.586;10.040;2023-05-01T13:23:41;20.90;38.90
35680;DHT22;21803;53.586;10.040;2023-05-01T13:26:07;20.90;38.90
35680;DHT22;21803;53.586;10.040;2023-05-01T13:28:42;20.90;38.90
35680;DHT22;21803;53.586;10.040;2023-05-01T13:31:10;20.90;38.90
35680;DHT22;21803;53.586;10.040;2023-05-01T13:33:39;20.90;38.90
35680;DHT22;21803;53.586;10.040;2023-05-01T13:36:06;20.90;38.90
35680;DHT22;21803;53.586;10.040;2023-05-01T13:38:47;20.90;38.90
35680;DHT22;21803;53.586;10.040;2023-05-01T13:41:19;20.90;38.90
35680;DHT22;21803;53.586;10.040;2023-05-01T13:43:45;20.90;38.80
35680;DHT22;21803;53.586;10.040;2023-05-01T13:46:13;20.90;38.90
35680;DHT22;21803;53.586;10.040;2023-05-01T13:48:39;20.90;38.90
35680;DHT22;21803;53.586;10.040;2023-05-01T13:51:07;20.90;38.80
35680;DHT22;21803;53.586;10.040;2023-05-01T13:53:33;20.90;38.80
35680;DHT22;21803;53.586;10.040;2023-05-01T13:55:58;20.90;39.50
35680;DHT22;21803;53.586;10.040;2023-05-01T13:58:24;20.90;38.80
35680;DHT22;21803;53.586;10.040;2023-05-01T14:00:49;20.90;38.90
35680;DHT22;21803;53.586;10.040;2023-05-01T14:03:15;20.90;38.90
35680;DHT22;21803;53.586;10.040;2023-05-01T14:05:40;20.90;38.90
35680;DHT22;21803;53.586;10.040;2023-05-01T14:08:07;20.90;38.90
35680;DHT22;21803;53.586;10.040;2023-05-01T14:10:33;20.90;38.90
35680;DHT22;21803;53.586;10.040;2023-05-01T14:12:59;20.90;38.90
35680;DHT22;21803;53.586;10.040;2023-05-01T14:15:25;20.90;38.90
35680;DHT22;21803;53.586;10.040;2023-05-01T14:17:51;20.90;39.00
35680;DHT22;21803;53.586;10.040;2023-05-01T14:20:17;20.90;39.00
35680;DHT22;21803;53.586;10.040;2023-05-01T14:22:45;20.90;39.00
35680;DHT22;21803;53.586;10.040;2023-05-01T14:27:53;20.90;39.00
35680;DHT22;21803;53.586;10.040;2023-05-01T14:30:36;20.90;39.10
35680;DHT22;21803;53.586;10.040;2023-05-01T14:33:05;20.90;39.10
35680;DHT22;21803;53.586;10.040;2023-05-01T14:35:32;20.90;39.10
35680;DHT22;21803;53.586;10.040;2023-05-01T14:38:09;20.90;39.10
35680;DHT22;21803;53.586;10.040;2023-05-01T14:40:35;20.90;39.10
35680;DHT22;21803;53.586;10.040;2023-05-01T14:43:03;20.90;39.10
35680;DHT22;21803;53.586;10.040;2023-05-01T14:45:30;20.90;39.20
35680;DHT22;21803;53.586;10.040;2023-05-01T14:47:56;21.00;39.30
35680;DHT22;21803;53.586;10.040;2023-05-01T14:50:23;20.90;39.20
35680;DHT22;21803;53.586;10.040;2023-05-01T14:52:53;20.90;39.30
35680;DHT22;21803;53.586;10.040;2023-05-01T14:55:25;20.90;39.20
35680;DHT22;21803;53.586;10.040;2023-05-01T14:57:51;20.90;39.20
35680;DHT22;21803;53.586;10.040;2023-05-01T15:00:17;20.90;39.30
35680;DHT22;21803;53.586;10.040;2023-05-01T15:02:43;20.90;39.30
35680;DHT22;21803;53.586;10.040;2023-05-01T15:05:09;20.90;39.30
35680;DHT22;21803;53.586;10.040;2023-05-01T15:07:34;20.90;39.40
35680;DHT22;21803;53.586;10.040;2023-05-01T15:10:00;20.90;39.30
35680;DHT22;21803;53.586;10.040;2023-05-01T15:12:25;20.90;39.40
35680;DHT22;21803;53.586;10.040;2023-05-01T15:14:51;20.90;39.40
35680;DHT22;21803;53.586;10.040;2023-05-01T15:17:16;21.00;39.50
35680;DHT22;21803;53.586;10.040;2023-05-01T15:19:42;20.90;39.50
35680;DHT22;21803;53.586;10.040;2023-05-01T15:22:08;20.90;39.50
35680;DHT22;21803;53.586;10.040;2023-05-01T15:24:33;20.90;39.60
35680;DHT22;21803;53.586;10.040;2023-05-01T15:26:59;20.90;39.60
35680;DHT22;21803;53.586;10.040;2023-05-01T15:29:25;20.90;39.60
35680;DHT22;21803;53.586;10.040;2023-05-01T15:31:50;20.90;39.70
35680;DHT22;21803;53.586;10.040;2023-05-01T15:34:17;20.90;39.80
35680;DHT22;21803;53.586;10.040;2023-05-01T15:36:42;20.90;39.80
35680;DHT22;21803;53.586;10.040;2023-05-01T15:39:08;20.90;39.80
35680;DHT22;21803;53.586;10.040;2023-05-01T15:41:36;20.90;39.90
35680;DHT22;21803;53.586;10.040;2023-05-01T15:44:02;20.90;39.90
35680;DHT22;21803;53.586;10.040;2023-05-01T15:46:30;20.90;39.90
35680;DHT22;21803;53.586;10.040;2023-05-01T15:48:55;20.90;40.00
35680;DHT22;21803;53.586;10.040;2023-05-01T15:51:21;20.90;40.00
35680;DHT22;21803;53.586;10.040;2023-05-01T15:53:46;20.90;40.00
35680;DHT22;21803;53.586;10.040;2023-05-01T15:56:12;20.90;40.10
35680;DHT22;21803;53.586;10.040;2023-05-01T15:58:37;20.90;40.10
35680;DHT22;21803;53.586;10.040;2023-05-01T16:01:03;20.90;40.00
35680;DHT22;21803;53.586;10.040;2023-05-01T16:03:29;20.90;40.10
35680;DHT22;21803;53.586;10.040;2023-05-01T16:05:55;20.90;40.10
35680;DHT22;21803;53.586;10.040;2023-05-01T16:08:21;20.90;40.10
35680;DHT22;21803;53.586;10.040;2023-05-01T16:10:47;20.90;40.10
35680;DHT22;21803;53.586;10.040;2023-05-01T16:13:13;20.90;40.10
35680;DHT22;21803;53.586;10.040;2023-05-01T16:15:38;20.90;40.10
35680;DHT22;21803;53.586;10.040;2023-05-01T16:18:04;20.90;40.10
35680;DHT22;21803;53.586;10.040;2023-05-01T16:20:34;20.90;40.10
35680;DHT22;21803;53.586;10.040;2023-05-01T16:23:03;20.90;40.20
35680;DHT22;21803;53.586;10.040;2023-05-01T16:25:28;20.90;40.20
35680;DHT22;21803;53.586;10.040;2023-05-01T16:27:54;20.90;40.20
35680;DHT22;21803;53.586;10.040;2023-05-01T16:30:19;20.90;40.20
35680;DHT22;21803;53.586;10.040;2023-05-01T16:32:48;20.90;40.20
35680;DHT22;21803;53.586;10.040;2023-05-01T16:35:16;20.90;40.20
35680;DHT22;21803;53.586;10.040;2023-05-01T16:37:42;20.90;40.30
35680;DHT22;21803;53.586;10.040;2023-05-01T16:40:08;20.90;40.30
35680;DHT22;21803;53.586;10.040;2023-05-01T16:42:39;20.90;40.30
35680;DHT22;21803;53.586;10.040;2023-05-01T16:45:05;20.90;40.30
35680;DHT22;21803;53.586;10.040;2023-05-01T16:47:31;20.90;40.30
35680;DHT22;21803;53.586;10.040;2023-05-01T16:49:58;20.90;40.30
35680;DHT22;21803;53.586;10.040;2023-05-01T16:52:25;20.90;40.30
35680;DHT22;21803;53.586;10.040;2023-05-01T16:54:50;20.90;40.30
35680;DHT22;21803;53.586;10.040;2023-05-01T16:57:15;20.90;40.30
35680;DHT22;21803;53.586;10.040;2023-05-01T16:59:42;20.90;40.30
35680;DHT22;21803;53.586;10.040;2023-05-01T17:02:08;20.90;40.30
35680;DHT22;21803;53.586;10.040;2023-05-01T17:04:33;20.90;40.30
35680;DHT22;21803;53.586;10.040;2023-05-01T17:06:59;20.90;40.40
35680;DHT22;21803;53.586;10.040;2023-05-01T17:09:24;20.90;40.30
35680;DHT22;21803;53.586;10.040;2023-05-01T17:11:50;20.90;40.30
35680;DHT22;21803;53.586;10.040;2023-05-01T17:14:16;20.90;40.30
35680;DHT22;21803;53.586;10.040;2023-05-01T17:16:42;20.90;40.40
35680;DHT22;21803;53.586;10.040;2023-05-01T17:19:07;20.90;40.40
35680;DHT22;21803;53.586;10.040;2023-05-01T17:21:34;20.90;40.40
35680;DHT22;21803;53.586;10.040;2023-05-01T17:24:00;20.90;40.40
35680;DHT22;21803;53.586;10.040;2023-05-01T17:26:25;20.90;40.40
35680;DHT22;21803;53.586;10.040;2023-05-01T17:28:51;20.90;40.40
35680;DHT22;21803;53.586;10.040;2023-05-01T17:31:16;20.90;40.40
35680;DHT22;21803;53.586;10.040;2023-05-01T17:33:42;20.90;40.40
35680;DHT22;21803;53.586;10.040;2023-05-01T17:36:07;20.90;40.50
35680;DHT22;21803;53.586;10.040;2023-05-01T17:38:34;20.90;41.10
35680;DHT22;21803;53.586;10.040;2023-05-01T17:40:59;20.90;40.50
35680;DHT22;21803;53.586;10.040;2023-05-01T17:43:25;20.90;40.50
35680;DHT22;21803;53.586;10.040;2023-05-01T17:45:51;20.90;40.50
35680;DHT22;21803;53.586;10.040;2023-05-01T17:48:16;20.90;40.50
35680;DHT22;21803;53.586;10.040;2023-05-01T17:50:44;20.90;40.60
35680;DHT22;21803;53.586;10.040;2023-05-01T17:53:09;20.90;40.60
35680;DHT22;21803;53.586;10.040;2023-05-01T17:55:35;20.90;40.60
35680;DHT22;21803;53.586;10.040;2023-05-01T17:58:02;20.90;40.60
35680;DHT22;21803;53.586;10.040;2023-05-01T18:00:28;20.90;40.60
35680;DHT22;21803;53.586;10.040;2023-05-01T18:02:55;20.90;40.60
35680;DHT22;21803;53.586;10.040;2023-05-01T18:05:21;20.90;40.60
35680;DHT22;21803;53.586;10.040;2023-05-01T18:07:47;20.90;40.60
35680;DHT22;21803;53.586;10.040;2023-05-01T18:10:12;20.90;40.60
35680;DHT22;21803;53.586;10.040;2023-05-01T18:12:38;20.90;40.60
35680;DHT22;21803;53.586;10.040;2023-05-01T18:15:04;20.90;40.60
35680;DHT22;21803;53.586;10.040;2023-05-01T18:17:29;20.90;40.60
35680;DHT22;21803;53.586;10.040;2023-05-01T18:19:55;20.90;40.60
35680;DHT22;21803;53.586;10.040;2023-05-01T18:22:20;20.90;40.60
35680;DHT22;21803;53.586;10.040;2023-05-01T18:24:46;20.90;40.60
35680;DHT22;21803;53.586;10.040;2023-05-01T18:27:12;20.90;41.20
35680;DHT22;21803;53.586;10.040;2023-05-01T18:29:38;20.90;40.60
35680;DHT22;21803;53.586;10.040;2023-05-01T18:32:04;20.90;40.50
35680;DHT22;21803;53.586;10.040;2023-05-01T18:34:30;20.90;40.50
35680;DHT22;21803;53.586;10.040;2023-05-01T18:36:55;20.90;40.50
35680;DHT22;21803;53.586;10.040;2023-05-01T18:39:21;20.90;40.40
35680;DHT22;21803;53.586;10.040;2023-05-01T18:41:47;20.90;40.40
35680;DHT22;21803;53.586;10.040;2023-05-01T18:44:14;20.90;40.40
35680;DHT22;21803;53.586;10.040;2023-05-01T18:46:39;20.90;40.50
35680;DHT22;21803;53.586;10.040;2023-05-01T18:49:05;20.90;40.40
35680;DHT22;21803;53.586;10.040;2023-05-01T18:51:31;20.90;40.40
35680;DHT22;21803;53.586;10.040;2023-05-01T18:53:56;20.90;40.40
35680;DHT22;21803;53.586;10.040;2023-05-01T18:56:23;20.90;40.40
35680;DHT22;21803;53.586;10.040;2023-05-01T18:58:49;20.90;40.40
35680;DHT22;21803;53.586;10.040;2023-05-01T19:01:14;20.90;40.40
35680;DHT22;21803;53.586;10.040;2023-05-01T19:03:40;20.90;40.30
35680;DHT22;21803;53.586;10.040;2023-05-01T19:06:05;20.90;40.30
35680;DHT22;21803;53.586;10.040;2023-05-01T19:08:35;20.90;40.30
35680;DHT22;21803;53.586;10.040;2023-05-01T19:11:00;20.90;40.30
35680;DHT22;21803;53.586;10.040;2023-05-01T19:13:26;20.90;40.30
35680;DHT22;21803;53.586;10.040;2023-05-01T19:15:51;20.90;40.30
35680;DHT22;21803;53.586;10.040;2023-05-01T19:18:17;20.90;40.30
35680;DHT22;21803;53.586;10.040;2023-05-01T19:20:43;20.90;40.30
35680;DHT22;21803;53.586;10.040;2023-05-01T19:23:10;20.90;40.30
35680;DHT22;21803;53.586;10.040;2023-05-01T19:25:36;20.90;40.20
35680;DHT22;21803;53.586;10.040;2023-05-01T19:28:01;20.90;40.20
35680;DHT22;21803;53.586;10.040;2023-05-01T19:30:28;20.90;40.20
35680;DHT22;21803;53.586;10.040;2023-05-01T19:32:53;20.90;40.10
35680;DHT22;21803;53.586;10.040;2023-05-01T19:35:19;20.90;40.10
35680;DHT22;21803;53.586;10.040;2023-05-01T19:37:46;20.80;40.00